sensor_id;sensor_type;location;lat;lon;timestamp;P1;durP1;ratioP1;P2;durP2;ratioP2
4694;SDS011;2361;49.540;8.390;2022-07-25T00:00:25;7.20;;;5.10;;
4694;SDS011;2361;49.540;8.390;2022-07-25T00:02:52;5.60;;;4.73;;
4694;SDS011;2361;49.540;8.390;2022-07-25T00:05:19;6.40;;;5.17;;
4694;SDS011;2361;49.540;8.390;2022-07-25T00:07:47;5.50;;;5.00;;
4694;SDS011;2361;49.540;8.390;2022-07-25T00:10:15;5.77;;;5.10;;
4694;SDS011;2361;49.540;8.390;2022-07-25T00:12:43;5.67;;;5.00;;
4694;SDS011;2361;49.540;8.390;2022-07-25T00:15:11;6.03;;;5.27;;
4694;SDS011;2361;49.540;8.390;2022-07-25T00:17:38;6.10;;;5.37;;
4694;SDS011;2361;49.540;8.390;2022-07-25T00:20:05;6.50;;;5.37;;
4694;SDS011;2361;49.540;8.390;2022-07-25T00:22:33;10.10;;;5.10;;
4694;SDS011;2361;49.540;8.390;2022-07-25T00:25:00;7.17;;;5.70;;
4694;SDS011;2361;49.540;8.390;2022-07-25T00:27:28;13.20;;;5.20;;
4694;SDS011;2361;49.540;8.390;2022-07-25T00:29:55;5.10;;;4.23;;
4694;SDS011;2361;49.540;8.390;2022-07-25T00:32:22;9.30;;;5.20;;
4694;SDS011;2361;49.540;8.390;2022-07-25T00:34:49;6.40;;;4.77;;
4694;SDS011;2361;49.540;8.390;2022-07-25T00:37:16;5.83;;;4.50;;
4694;SDS011;2361;49.540;8.390;2022-07-25T00:39:43;5.50;;;4.83;;
4694;SDS011;2361;49.540;8.390;2022-07-25T00:42:10;5.77;;;5.13;;
4694;SDS011;2361;49.540;8.390;2022-07-25T00:44:37;6.83;;;5.33;;
4694;SDS011;2361;49.540;8.390;2022-07-25T00:47:04;8.60;;;5.23;;
4694;SDS011;2361;49.540;8.390;2022-07-25T00:49:31;5.90;;;5.30;;
4694;SDS011;2361;49.540;8.390;2022-07-25T00:51:58;5.40;;;4.57;;
4694;SDS011;2361;49.540;8.390;2022-07-25T00:54:29;5.50;;;5.00;;
4694;SDS011;2361;49.540;8.390;2022-07-25T00:56:56;8.93;;;5.27;;
4694;SDS011;2361;49.540;8.390;2022-07-25T00:59:23;6.27;;;4.77;;
4694;SDS011;2361;49.540;8.390;2022-07-25T01:01:50;7.60;;;5.50;;
4694;SDS011;2361;49.540;8.390;2022-07-25T01:04:17;8.47;;;5.90;;
4694;SDS011;2361;49.540;8.390;2022-07-25T01:06:44;5.80;;;5.20;;
4694;SDS011;2361;49.540;8.390;2022-07-25T01:09:12;6.00;;;4.80;;
4694;SDS011;2361;49.540;8.390;2022-07-25T01:11:39;5.30;;;4.73;;
4694;SDS011;2361;49.540;8.390;2022-07-25T01:14:06;7.63;;;5.73;;
4694;SDS011;2361;49.540;8.390;2022-07-25T01:16:33;6.30;;;5.70;;
4694;SDS011;2361;49.540;8.390;2022-07-25T01:19:00;5.70;;;5.10;;
4694;SDS011;2361;49.540;8.390;2022-07-25T01:21:27;5.83;;;5.27;;
4694;SDS011;2361;49.540;8.390;2022-07-25T01:23:54;5.37;;;4.87;;
4694;SDS011;2361;49.540;8.390;2022-07-25T01:26:21;14.80;;;5.67;;
4694;SDS011;2361;49.540;8.390;2022-07-25T01:28:48;6.23;;;5.50;;
4694;SDS011;2361;49.540;8.390;2022-07-25T01:31:15;7.77;;;4.70;;
4694;SDS011;2361;49.540;8.390;2022-07-25T01:33:43;5.57;;;5.00;;
4694;SDS011;2361;49.540;8.390;2022-07-25T01:36:10;5.67;;;5.17;;
4694;SDS011;2361;49.540;8.390;2022-07-25T01:38:37;5.40;;;4.90;;
4694;SDS011;2361;49.540;8.390;2022-07-25T01:41:04;5.43;;;4.90;;
4694;SDS011;2361;49.540;8.390;2022-07-25T01:43:31;7.83;;;5.93;;
4694;SDS011;2361;49.540;8.390;2022-07-25T01:45:58;6.30;;;5.43;;
4694;SDS011;2361;49.540;8.390;2022-07-25T01:48:25;6.40;;;5.20;;
4694;SDS011;2361;49.540;8.390;2022-07-25T01:50:52;5.00;;;4.53;;
4694;SDS011;2361;49.540;8.390;2022-07-25T01:53:20;5.50;;;4.80;;
4694;SDS011;2361;49.540;8.390;2022-07-25T01:55:47;5.73;;;5.13;;
4694;SDS011;2361;49.540;8.390;2022-07-25T01:58:13;6.00;;;4.90;;
4694;SDS011;2361;49.540;8.390;2022-07-25T02:00:40;7.27;;;5.63;;
4694;SDS011;2361;49.540;8.390;2022-07-25T02:03:07;8.17;;;6.60;;
4694;SDS011;2361;49.540;8.390;2022-07-25T02:05:53;6.60;;;5.47;;
4694;SDS011;2361;49.540;8.390;2022-07-25T02:08:21;10.33;;;6.67;;
4694;SDS011;2361;49.540;8.390;2022-07-25T02:10:48;6.23;;;5.33;;
4694;SDS011;2361;49.540;8.390;2022-07-25T02:13:15;9.57;;;6.00;;
4694;SDS011;2361;49.540;8.390;2022-07-25T02:15:43;8.40;;;5.83;;
4694;SDS011;2361;49.540;8.390;2022-07-25T02:18:10;7.13;;;5.33;;
4694;SDS011;2361;49.540;8.390;2022-07-25T02:20:37;6.50;;;5.80;;
4694;SDS011;2361;49.540;8.390;2022-07-25T02:23:04;5.60;;;4.83;;
4694;SDS011;2361;49.540;8.390;2022-07-25T02:25:31;9.83;;;5.27;;
4694;SDS011;2361;49.540;8.390;2022-07-25T02:27:59;4.97;;;4.47;;
4694;SDS011;2361;49.540;8.390;2022-07-25T02:30:26;5.33;;;4.83;;
4694;SDS011;2361;49.540;8.390;2022-07-25T02:32:53;6.97;;;5.80;;
4694;SDS011;2361;49.540;8.390;2022-07-25T02:35:20;7.83;;;5.27;;
4694;SDS011;2361;49.540;8.390;2022-07-25T02:37:47;7.70;;;5.33;;
4694;SDS011;2361;49.540;8.390;2022-07-25T02:40:14;11.20;;;5.40;;
4694;SDS011;2361;49.540;8.390;2022-07-25T02:42:41;8.17;;;6.00;;
4694;SDS011;2361;49.540;8.390;2022-07-25T02:45:08;7.80;;;6.00;;
4694;SDS011;2361;49.540;8.390;2022-07-25T02:47:35;7.77;;;5.83;;
4694;SDS011;2361;49.540;8.390;2022-07-25T02:50:03;6.10;;;4.97;;
4694;SDS011;2361;49.540;8.390;2022-07-25T02:52:30;9.07;;;6.17;;
4694;SDS011;2361;49.540;8.390;2022-07-25T02:54:58;7.10;;;6.17;;
4694;SDS011;2361;49.540;8.390;2022-07-25T02:57:27;6.43;;;5.30;;
4694;SDS011;2361;49.540;8.390;2022-07-25T02:59:54;8.63;;;6.13;;
4694;SDS011;2361;49.540;8.390;2022-07-25T03:02:21;7.10;;;6.00;;
4694;SDS011;2361;49.540;8.390;2022-07-25T03:04:48;9.27;;;6.60;;
4694;SDS011;2361;49.540;8.390;2022-07-25T03:07:15;6.17;;;5.50;;
4694;SDS011;2361;49.540;8.390;2022-07-25T03:09:41;7.00;;;6.00;;
4694;SDS011;2361;49.540;8.390;2022-07-25T03:12:08;9.00;;;6.23;;
4694;SDS011;2361;49.540;8.390;2022-07-25T03:14:35;8.77;;;6.23;;
4694;SDS011;2361;49.540;8.390;2022-07-25T03:17:02;7.10;;;5.83;;
4694;SDS011;2361;49.540;8.390;2022-07-25T03:19:29;7.87;;;6.17;;
4694;SDS011;2361;49.540;8.390;2022-07-25T03:21:56;8.30;;;6.70;;
4694;SDS011;2361;49.540;8.390;2022-07-25T03:24:23;8.93;;;6.40;;
4694;SDS011;2361;49.540;8.390;2022-07-25T03:26:50;8.43;;;6.77;;
4694;SDS011;2361;49.540;8.390;2022-07-25T03:29:17;9.20;;;6.90;;
4694;SDS011;2361;49.540;8.390;2022-07-25T03:31:44;9.33;;;6.67;;
4694;SDS011;2361;49.540;8.390;2022-07-25T03:34:11;7.50;;;6.30;;
4694;SDS011;2361;49.540;8.390;2022-07-25T03:36:38;9.27;;;7.10;;
4694;SDS011;2361;49.540;8.390;2022-07-25T03:39:05;8.10;;;6.77;;
4694;SDS011;2361;49.540;8.390;2022-07-25T03:41:32;11.90;;;6.10;;
4694;SDS011;2361;49.540;8.390;2022-07-25T03:43:59;7.87;;;6.40;;
4694;SDS011;2361;49.540;8.390;2022-07-25T03:46:26;6.90;;;5.80;;
4694;SDS011;2361;49.540;8.390;2022-07-25T03:48:53;7.60;;;6.03;;
4694;SDS011;2361;49.540;8.390;2022-07-25T03:51:21;9.70;;;6.23;;
4694;SDS011;2361;49.540;8.390;2022-07-25T03:53:47;8.57;;;6.83;;
4694;SDS011;2361;49.540;8.390;2022-07-25T03:56:35;6.70;;;6.00;;
4694;SDS011;2361;49.540;8.390;2022-07-25T03:59:09;10.33;;;6.70;;
4694;SDS011;2361;49.540;8.390;2022-07-25T04:01:40;10.00;;;6.83;;
4694;SDS011;2361;49.540;8.390;2022-07-25T04:04:08;12.10;;;6.87;;
4694;SDS011;2361;49.540;8.390;2022-07-25T04:06:36;8.83;;;6.80;;
4694;SDS011;2361;49.540;8.390;2022-07-25T04:09:04;11.50;;;6.97;;
4694;SDS011;2361;49.540;8.390;2022-07-25T04:11:32;8.87;;;6.63;;
4694;SDS011;2361;49.540;8.390;2022-07-25T04:14:01;8.97;;;7.50;;
4694;SDS011;2361;49.540;8.390;2022-07-25T04:16:28;11.80;;;7.93;;
4694;SDS011;2361;49.540;8.390;2022-07-25T04:18:55;11.40;;;8.27;;
4694;SDS011;2361;49.540;8.390;2022-07-25T04:21:23;9.43;;;7.10;;
4694;SDS011;2361;49.540;8.390;2022-07-25T04:23:50;9.60;;;7.20;;
4694;SDS011;2361;49.540;8.390;2022-07-25T04:26:18;8.07;;;6.77;;
4694;SDS011;2361;49.540;8.390;2022-07-25T04:28:45;9.33;;;7.17;;
4694;SDS011;2361;49.540;8.390;2022-07-25T04:31:12;9.13;;;6.80;;
4694;SDS011;2361;49.540;8.390;2022-07-25T04:33:40;9.13;;;6.40;;
4694;SDS011;2361;49.540;8.390;2022-07-25T04:36:07;9.00;;;6.90;;
4694;SDS011;2361;49.540;8.390;2022-07-25T04:38:35;9.70;;;7.30;;
4694;SDS011;2361;49.540;8.390;2022-07-25T04:41:02;8.90;;;7.30;;
4694;SDS011;2361;49.540;8.390;2022-07-25T04:43:30;7.97;;;6.90;;
4694;SDS011;2361;49.540;8.390;2022-07-25T04:45:57;9.37;;;7.23;;
4694;SDS011;2361;49.540;8.390;2022-07-25T04:48:24;9.83;;;7.80;;
4694;SDS011;2361;49.540;8.390;2022-07-25T04:50:52;8.10;;;7.03;;
4694;SDS011;2361;49.540;8.390;2022-07-25T04:53:19;8.30;;;6.90;;
4694;SDS011;2361;49.540;8.390;2022-07-25T04:55:46;9.80;;;6.63;;
4694;SDS011;2361;49.540;8.390;2022-07-25T04:58:13;11.50;;;7.60;;
4694;SDS011;2361;49.540;8.390;2022-07-25T05:00:40;9.13;;;6.50;;
4694;SDS011;2361;49.540;8.390;2022-07-25T05:03:08;8.60;;;6.93;;
4694;SDS011;2361;49.540;8.390;2022-07-25T05:05:35;10.47;;;7.07;;
4694;SDS011;2361;49.540;8.390;2022-07-25T05:08:03;13.43;;;7.87;;
4694;SDS011;2361;49.540;8.390;2022-07-25T05:10:30;8.80;;;7.10;;
4694;SDS011;2361;49.540;8.390;2022-07-25T05:12:58;8.53;;;6.80;;
4694;SDS011;2361;49.540;8.390;2022-07-25T05:15:25;8.87;;;6.87;;
4694;SDS011;2361;49.540;8.390;2022-07-25T05:17:52;10.00;;;7.20;;
4694;SDS011;2361;49.540;8.390;2022-07-25T05:20:19;9.87;;;7.00;;
4694;SDS011;2361;49.540;8.390;2022-07-25T05:22:46;14.53;;;8.20;;
4694;SDS011;2361;49.540;8.390;2022-07-25T05:25:13;11.20;;;7.37;;
4694;SDS011;2361;49.540;8.390;2022-07-25T05:27:40;11.37;;;7.93;;
4694;SDS011;2361;49.540;8.390;2022-07-25T05:30:08;7.70;;;6.90;;
4694;SDS011;2361;49.540;8.390;2022-07-25T05:32:38;10.77;;;8.07;;
4694;SDS011;2361;49.540;8.390;2022-07-25T05:35:06;8.63;;;7.57;;
4694;SDS011;2361;49.540;8.390;2022-07-25T05:37:34;12.03;;;6.60;;
4694;SDS011;2361;49.540;8.390;2022-07-25T05:40:03;8.20;;;7.23;;
4694;SDS011;2361;49.540;8.390;2022-07-25T05:42:32;9.43;;;7.63;;
4694;SDS011;2361;49.540;8.390;2022-07-25T05:45:00;9.70;;;6.77;;
4694;SDS011;2361;49.540;8.390;2022-07-25T05:47:27;17.73;;;8.20;;
4694;SDS011;2361;49.540;8.390;2022-07-25T05:49:54;9.63;;;7.40;;
4694;SDS011;2361;49.540;8.390;2022-07-25T05:52:21;9.13;;;6.97;;
4694;SDS011;2361;49.540;8.390;2022-07-25T05:54:48;9.33;;;7.00;;
4694;SDS011;2361;49.540;8.390;2022-07-25T05:57:15;8.80;;;7.33;;
4694;SDS011;2361;49.540;8.390;2022-07-25T05:59:42;9.73;;;7.63;;
4694;SDS011;2361;49.540;8.390;2022-07-25T06:02:09;9.60;;;7.40;;
4694;SDS011;2361;49.540;8.390;2022-07-25T06:04:37;9.50;;;7.33;;
4694;SDS011;2361;49.540;8.390;2022-07-25T06:07:03;9.50;;;7.17;;
4694;SDS011;2361;49.540;8.390;2022-07-25T06:09:30;7.80;;;6.47;;
4694;SDS011;2361;49.540;8.390;2022-07-25T06:11:58;11.10;;;8.03;;
4694;SDS011;2361;49.540;8.390;2022-07-25T06:14:26;13.40;;;7.80;;
4694;SDS011;2361;49.540;8.390;2022-07-25T06:16:54;11.30;;;7.77;;
4694;SDS011;2361;49.540;8.390;2022-07-25T06:19:22;9.00;;;6.87;;
4694;SDS011;2361;49.540;8.390;2022-07-25T06:21:49;8.87;;;7.33;;
4694;SDS011;2361;49.540;8.390;2022-07-25T06:24:16;9.50;;;7.93;;
4694;SDS011;2361;49.540;8.390;2022-07-25T06:26:43;8.90;;;7.17;;
4694;SDS011;2361;49.540;8.390;2022-07-25T06:29:10;8.83;;;7.33;;
4694;SDS011;2361;49.540;8.390;2022-07-25T06:31:37;14.87;;;7.57;;
4694;SDS011;2361;49.540;8.390;2022-07-25T06:34:04;11.63;;;8.20;;
4694;SDS011;2361;49.540;8.390;2022-07-25T06:36:32;9.53;;;7.97;;
4694;SDS011;2361;49.540;8.390;2022-07-25T06:38:59;10.80;;;8.07;;
4694;SDS011;2361;49.540;8.390;2022-07-25T06:41:27;7.27;;;6.57;;
4694;SDS011;2361;49.540;8.390;2022-07-25T06:43:53;9.90;;;8.33;;
4694;SDS011;2361;49.540;8.390;2022-07-25T06:46:21;8.77;;;7.90;;
4694;SDS011;2361;49.540;8.390;2022-07-25T06:48:48;8.70;;;7.50;;
4694;SDS011;2361;49.540;8.390;2022-07-25T06:51:15;9.03;;;7.90;;
4694;SDS011;2361;49.540;8.390;2022-07-25T06:53:42;8.83;;;7.80;;
4694;SDS011;2361;49.540;8.390;2022-07-25T06:56:09;8.07;;;7.27;;
4694;SDS011;2361;49.540;8.390;2022-07-25T06:58:42;9.27;;;8.27;;
4694;SDS011;2361;49.540;8.390;2022-07-25T07:01:10;8.90;;;7.40;;
4694;SDS011;2361;49.540;8.390;2022-07-25T07:03:37;13.17;;;8.20;;
4694;SDS011;2361;49.540;8.390;2022-07-25T07:06:06;9.80;;;7.50;;
4694;SDS011;2361;49.540;8.390;2022-07-25T07:08:34;8.80;;;7.90;;
4694;SDS011;2361;49.540;8.390;2022-07-25T07:11:05;8.50;;;7.80;;
4694;SDS011;2361;49.540;8.390;2022-07-25T07:13:34;9.40;;;8.50;;
4694;SDS011;2361;49.540;8.390;2022-07-25T07:16:01;9.30;;;8.40;;
4694;SDS011;2361;49.540;8.390;2022-07-25T07:18:28;8.77;;;8.07;;
4694;SDS011;2361;49.540;8.390;2022-07-25T07:20:55;8.53;;;7.73;;
4694;SDS011;2361;49.540;8.390;2022-07-25T07:23:22;9.10;;;8.20;;
4694;SDS011;2361;49.540;8.390;2022-07-25T07:25:50;8.80;;;8.00;;
4694;SDS011;2361;49.540;8.390;2022-07-25T07:28:17;8.90;;;8.10;;
4694;SDS011;2361;49.540;8.390;2022-07-25T07:30:44;8.47;;;7.87;;
4694;SDS011;2361;49.540;8.390;2022-07-25T07:33:31;8.70;;;7.90;;
4694;SDS011;2361;49.540;8.390;2022-07-25T07:35:58;8.80;;;8.00;;
4694;SDS011;2361;49.540;8.390;2022-07-25T07:38:27;10.73;;;8.60;;
4694;SDS011;2361;49.540;8.390;2022-07-25T07:40:54;9.23;;;8.10;;
4694;SDS011;2361;49.540;8.390;2022-07-25T07:43:21;9.47;;;8.67;;
4694;SDS011;2361;49.540;8.390;2022-07-25T07:45:54;8.23;;;7.53;;
4694;SDS011;2361;49.540;8.390;2022-07-25T07:48:22;7.77;;;7.17;;
4694;SDS011;2361;49.540;8.390;2022-07-25T07:50:49;8.87;;;8.20;;
4694;SDS011;2361;49.540;8.390;2022-07-25T07:53:16;8.80;;;8.00;;
4694;SDS011;2361;49.540;8.390;2022-07-25T07:55:43;8.57;;;7.77;;
4694;SDS011;2361;49.540;8.390;2022-07-25T07:58:20;8.30;;;7.60;;
4694;SDS011;2361;49.540;8.390;2022-07-25T08:00:47;8.17;;;7.57;;
4694;SDS011;2361;49.540;8.390;2022-07-25T08:03:17;8.80;;;8.10;;
4694;SDS011;2361;49.540;8.390;2022-07-25T08:05:46;8.43;;;7.83;;
4694;SDS011;2361;49.540;8.390;2022-07-25T08:08:15;8.77;;;8.13;;
4694;SDS011;2361;49.540;8.390;2022-07-25T08:10:44;8.60;;;7.90;;
4694;SDS011;2361;49.540;8.390;2022-07-25T08:13:17;8.40;;;7.70;;
4694;SDS011;2361;49.540;8.390;2022-07-25T08:15:48;9.27;;;8.47;;
4694;SDS011;2361;49.540;8.390;2022-07-25T08:18:25;9.83;;;8.57;;
4694;SDS011;2361;49.540;8.390;2022-07-25T08:20:58;9.50;;;8.70;;
4694;SDS011;2361;49.540;8.390;2022-07-25T08:23:31;8.53;;;7.87;;
4694;SDS011;2361;49.540;8.390;2022-07-25T08:26:04;8.70;;;8.00;;
4694;SDS011;2361;49.540;8.390;2022-07-25T08:28:32;8.27;;;7.60;;
4694;SDS011;2361;49.540;8.390;2022-07-25T08:30:59;10.47;;;8.50;;
4694;SDS011;2361;49.540;8.390;2022-07-25T08:33:26;11.13;;;7.87;;
4694;SDS011;2361;49.540;8.390;2022-07-25T08:35:54;8.10;;;7.57;;
4694;SDS011;2361;49.540;8.390;2022-07-25T08:38:24;9.80;;;9.00;;
4694;SDS011;2361;49.540;8.390;2022-07-25T08:40:53;7.87;;;7.23;;
4694;SDS011;2361;49.540;8.390;2022-07-25T08:43:22;8.17;;;7.47;;
4694;SDS011;2361;49.540;8.390;2022-07-25T08:45:53;8.50;;;7.90;;
4694;SDS011;2361;49.540;8.390;2022-07-25T08:48:21;8.70;;;8.00;;
4694;SDS011;2361;49.540;8.390;2022-07-25T08:50:51;8.43;;;7.80;;
4694;SDS011;2361;49.540;8.390;2022-07-25T08:53:20;7.93;;;7.23;;
4694;SDS011;2361;49.540;8.390;2022-07-25T08:56:03;8.40;;;7.70;;
4694;SDS011;2361;49.540;8.390;2022-07-25T08:58:41;8.20;;;7.60;;
4694;SDS011;2361;49.540;8.390;2022-07-25T09:01:09;7.50;;;7.00;;
4694;SDS011;2361;49.540;8.390;2022-07-25T09:03:40;7.50;;;7.00;;
4694;SDS011;2361;49.540;8.390;2022-07-25T09:06:27;8.03;;;7.33;;
4694;SDS011;2361;49.540;8.390;2022-07-25T09:08:55;7.27;;;6.77;;
4694;SDS011;2361;49.540;8.390;2022-07-25T09:11:27;7.40;;;7.00;;
4694;SDS011;2361;49.540;8.390;2022-07-25T09:14:03;7.30;;;6.87;;
4694;SDS011;2361;49.540;8.390;2022-07-25T09:16:38;7.40;;;7.00;;
4694;SDS011;2361;49.540;8.390;2022-07-25T09:22:04;7.20;;;6.70;;
4694;SDS011;2361;49.540;8.390;2022-07-25T09:24:35;7.03;;;6.63;;
4694;SDS011;2361;49.540;8.390;2022-07-25T09:27:10;6.20;;;5.80;;
4694;SDS011;2361;49.540;8.390;2022-07-25T09:29:38;7.57;;;7.17;;
4694;SDS011;2361;49.540;8.390;2022-07-25T09:32:17;7.37;;;7.00;;
4694;SDS011;2361;49.540;8.390;2022-07-25T09:34:47;6.67;;;6.27;;
4694;SDS011;2361;49.540;8.390;2022-07-25T09:37:17;7.83;;;7.17;;
4694;SDS011;2361;49.540;8.390;2022-07-25T09:39:51;6.70;;;6.30;;
4694;SDS011;2361;49.540;8.390;2022-07-25T09:42:23;8.30;;;6.53;;
4694;SDS011;2361;49.540;8.390;2022-07-25T09:45:07;6.97;;;6.57;;
4694;SDS011;2361;49.540;8.390;2022-07-25T09:47:56;6.70;;;6.30;;
4694;SDS011;2361;49.540;8.390;2022-07-25T09:50:26;6.43;;;6.13;;
4694;SDS011;2361;49.540;8.390;2022-07-25T09:52:56;6.27;;;6.03;;
4694;SDS011;2361;49.540;8.390;2022-07-25T09:55:27;6.95;;;5.95;;
4694;SDS011;2361;49.540;8.390;2022-07-25T09:57:55;7.17;;;6.57;;
4694;SDS011;2361;49.540;8.390;2022-07-25T10:00:23;6.50;;;6.20;;
4694;SDS011;2361;49.540;8.390;2022-07-25T10:08:47;7.10;;;6.60;;
4694;SDS011;2361;49.540;8.390;2022-07-25T10:11:33;7.53;;;6.73;;
4694;SDS011;2361;49.540;8.390;2022-07-25T10:14:07;10.60;;;6.60;;
4694;SDS011;2361;49.540;8.390;2022-07-25T10:16:44;8.53;;;7.80;;
4694;SDS011;2361;49.540;8.390;2022-07-25T10:19:13;7.97;;;7.40;;
4694;SDS011;2361;49.540;8.390;2022-07-25T10:21:40;7.90;;;7.20;;
4694;SDS011;2361;49.540;8.390;2022-07-25T10:24:07;8.20;;;7.60;;
4694;SDS011;2361;49.540;8.390;2022-07-25T10:26:37;7.00;;;6.47;;
4694;SDS011;2361;49.540;8.390;2022-07-25T10:29:09;6.60;;;6.10;;
4694;SDS011;2361;49.540;8.390;2022-07-25T10:31:40;7.80;;;7.10;;
4694;SDS011;2361;49.540;8.390;2022-07-25T10:34:26;8.30;;;7.50;;
4694;SDS011;2361;49.540;8.390;2022-07-25T10:36:56;7.57;;;6.97;;
4694;SDS011;2361;49.540;8.390;2022-07-25T10:39:41;7.30;;;6.60;;
4694;SDS011;2361;49.540;8.390;2022-07-25T10:42:14;8.23;;;6.70;;
4694;SDS011;2361;49.540;8.390;2022-07-25T10:44:44;7.57;;;6.87;;
4694;SDS011;2361;49.540;8.390;2022-07-25T10:47:16;8.17;;;7.37;;
4694;SDS011;2361;49.540;8.390;2022-07-25T10:49:44;7.73;;;7.10;;
4694;SDS011;2361;49.540;8.390;2022-07-25T10:52:40;8.37;;;7.67;;
4694;SDS011;2361;49.540;8.390;2022-07-25T10:55:08;6.80;;;5.83;;
4694;SDS011;2361;49.540;8.390;2022-07-25T10:57:35;7.83;;;7.03;;
4694;SDS011;2361;49.540;8.390;2022-07-25T11:00:25;7.17;;;6.47;;
4694;SDS011;2361;49.540;8.390;2022-07-25T11:02:55;8.53;;;6.07;;
4694;SDS011;2361;49.540;8.390;2022-07-25T11:05:22;6.57;;;5.87;;
4694;SDS011;2361;49.540;8.390;2022-07-25T11:07:50;8.73;;;7.93;;
4694;SDS011;2361;49.540;8.390;2022-07-25T11:10:38;8.67;;;7.87;;
4694;SDS011;2361;49.540;8.390;2022-07-25T11:13:08;7.73;;;7.03;;
4694;SDS011;2361;49.540;8.390;2022-07-25T11:15:39;7.33;;;6.73;;
4694;SDS011;2361;49.540;8.390;2022-07-25T11:18:08;7.90;;;7.10;;
4694;SDS011;2361;49.540;8.390;2022-07-25T11:20:35;6.57;;;6.00;;
4694;SDS011;2361;49.540;8.390;2022-07-25T11:23:02;8.00;;;7.20;;
4694;SDS011;2361;49.540;8.390;2022-07-25T11:25:29;9.80;;;8.10;;
4694;SDS011;2361;49.540;8.390;2022-07-25T11:27:57;8.13;;;6.37;;
4694;SDS011;2361;49.540;8.390;2022-07-25T11:30:26;6.93;;;6.33;;
4694;SDS011;2361;49.540;8.390;2022-07-25T11:32:56;9.00;;;7.43;;
4694;SDS011;2361;49.540;8.390;2022-07-25T11:35:27;8.00;;;7.30;;
4694;SDS011;2361;49.540;8.390;2022-07-25T11:37:58;7.90;;;7.10;;
4694;SDS011;2361;49.540;8.390;2022-07-25T11:40:27;8.70;;;7.90;;
4694;SDS011;2361;49.540;8.390;2022-07-25T11:42:57;8.83;;;8.03;;
4694;SDS011;2361;49.540;8.390;2022-07-25T11:45:29;8.50;;;7.70;;
4694;SDS011;2361;49.540;8.390;2022-07-25T11:50:37;8.60;;;7.80;;
4694;SDS011;2361;49.540;8.390;2022-07-25T11:53:08;9.10;;;8.20;;
4694;SDS011;2361;49.540;8.390;2022-07-25T11:55:39;8.20;;;7.40;;
4694;SDS011;2361;49.540;8.390;2022-07-25T11:58:08;8.27;;;7.57;;
4694;SDS011;2361;49.540;8.390;2022-07-25T12:00:38;8.70;;;7.87;;
4694;SDS011;2361;49.540;8.390;2022-07-25T12:03:15;8.10;;;7.40;;
4694;SDS011;2361;49.540;8.390;2022-07-25T12:05:46;7.90;;;7.10;;
4694;SDS011;2361;49.540;8.390;2022-07-25T12:08:15;8.27;;;7.50;;
4694;SDS011;2361;49.540;8.390;2022-07-25T12:10:45;9.00;;;8.20;;
4694;SDS011;2361;49.540;8.390;2022-07-25T12:13:24;7.50;;;6.80;;
4694;SDS011;2361;49.540;8.390;2022-07-25T12:15:54;8.63;;;7.70;;
4694;SDS011;2361;49.540;8.390;2022-07-25T12:18:25;7.53;;;6.73;;
4694;SDS011;2361;49.540;8.390;2022-07-25T12:20:52;4.33;;;3.93;;
4694;SDS011;2361;49.540;8.390;2022-07-25T12:23:19;4.53;;;4.20;;
4694;SDS011;2361;49.540;8.390;2022-07-25T12:25:49;6.07;;;5.57;;
4694;SDS011;2361;49.540;8.390;2022-07-25T12:28:16;5.10;;;4.70;;
4694;SDS011;2361;49.540;8.390;2022-07-25T12:30:44;8.17;;;4.97;;
4694;SDS011;2361;49.540;8.390;2022-07-25T12:33:12;5.57;;;5.17;;
4694;SDS011;2361;49.540;8.390;2022-07-25T12:35:40;4.80;;;4.40;;
4694;SDS011;2361;49.540;8.390;2022-07-25T12:38:08;6.60;;;5.50;;
4694;SDS011;2361;49.540;8.390;2022-07-25T12:40:39;5.60;;;5.20;;
4694;SDS011;2361;49.540;8.390;2022-07-25T12:43:06;5.70;;;5.30;;
4694;SDS011;2361;49.540;8.390;2022-07-25T12:45:33;6.50;;;5.10;;
4694;SDS011;2361;49.540;8.390;2022-07-25T12:48:01;7.20;;;6.60;;
4694;SDS011;2361;49.540;8.390;2022-07-25T12:50:28;9.40;;;8.50;;
4694;SDS011;2361;49.540;8.390;2022-07-25T12:52:55;4.93;;;4.60;;
4694;SDS011;2361;49.540;8.390;2022-07-25T12:55:22;6.17;;;5.37;;
4694;SDS011;2361;49.540;8.390;2022-07-25T12:57:49;5.53;;;5.13;;
4694;SDS011;2361;49.540;8.390;2022-07-25T13:00:17;5.83;;;5.43;;
4694;SDS011;2361;49.540;8.390;2022-07-25T13:02:47;5.63;;;5.23;;
4694;SDS011;2361;49.540;8.390;2022-07-25T13:05:17;6.07;;;5.57;;
4694;SDS011;2361;49.540;8.390;2022-07-25T13:07:45;6.13;;;5.53;;
4694;SDS011;2361;49.540;8.390;2022-07-25T13:10:14;4.93;;;4.60;;
4694;SDS011;2361;49.540;8.390;2022-07-25T13:12:42;5.97;;;5.50;;
4694;SDS011;2361;49.540;8.390;2022-07-25T13:15:09;5.93;;;5.43;;
4694;SDS011;2361;49.540;8.390;2022-07-25T13:17:36;5.67;;;5.20;;
4694;SDS011;2361;49.540;8.390;2022-07-25T13:20:03;5.73;;;5.23;;
4694;SDS011;2361;49.540;8.390;2022-07-25T13:22:31;6.37;;;5.77;;
4694;SDS011;2361;49.540;8.390;2022-07-25T13:24:58;5.20;;;4.70;;
4694;SDS011;2361;49.540;8.390;2022-07-25T13:27:25;6.53;;;6.03;;
4694;SDS011;2361;49.540;8.390;2022-07-25T13:29:52;6.70;;;5.60;;
4694;SDS011;2361;49.540;8.390;2022-07-25T13:32:20;6.30;;;5.70;;
4694;SDS011;2361;49.540;8.390;2022-07-25T13:34:47;6.10;;;5.60;;
4694;SDS011;2361;49.540;8.390;2022-07-25T13:37:15;6.63;;;6.03;;
4694;SDS011;2361;49.540;8.390;2022-07-25T13:39:42;11.90;;;9.03;;
4694;SDS011;2361;49.540;8.390;2022-07-25T13:42:09;13.43;;;11.97;;
4694;SDS011;2361;49.540;8.390;2022-07-25T13:44:36;6.47;;;5.87;;
4694;SDS011;2361;49.540;8.390;2022-07-25T13:47:03;7.13;;;6.53;;
4694;SDS011;2361;49.540;8.390;2022-07-25T13:49:30;6.57;;;5.97;;
4694;SDS011;2361;49.540;8.390;2022-07-25T13:51:58;7.70;;;6.50;;
4694;SDS011;2361;49.540;8.390;2022-07-25T13:54:25;7.83;;;6.03;;
4694;SDS011;2361;49.540;8.390;2022-07-25T13:56:52;6.60;;;5.97;;
4694;SDS011;2361;49.540;8.390;2022-07-25T13:59:19;6.80;;;6.07;;
4694;SDS011;2361;49.540;8.390;2022-07-25T14:01:47;6.57;;;5.93;;
4694;SDS011;2361;49.540;8.390;2022-07-25T14:04:15;7.50;;;6.53;;
4694;SDS011;2361;49.540;8.390;2022-07-25T14:06:42;6.80;;;6.20;;
4694;SDS011;2361;49.540;8.390;2022-07-25T14:09:09;6.33;;;5.77;;
4694;SDS011;2361;49.540;8.390;2022-07-25T14:11:36;7.47;;;6.77;;
4694;SDS011;2361;49.540;8.390;2022-07-25T14:14:03;7.30;;;5.70;;
4694;SDS011;2361;49.540;8.390;2022-07-25T14:16:31;8.97;;;6.17;;
4694;SDS011;2361;49.540;8.390;2022-07-25T14:18:59;6.37;;;5.80;;
4694;SDS011;2361;49.540;8.390;2022-07-25T14:21:27;6.80;;;6.20;;
4694;SDS011;2361;49.540;8.390;2022-07-25T14:23:54;6.73;;;6.13;;
4694;SDS011;2361;49.540;8.390;2022-07-25T14:26:21;7.27;;;6.53;;
4694;SDS011;2361;49.540;8.390;2022-07-25T14:28:48;6.30;;;5.80;;
4694;SDS011;2361;49.540;8.390;2022-07-25T14:31:15;6.53;;;5.93;;
4694;SDS011;2361;49.540;8.390;2022-07-25T14:33:42;6.77;;;5.90;;
4694;SDS011;2361;49.540;8.390;2022-07-25T14:36:09;6.60;;;6.00;;
4694;SDS011;2361;49.540;8.390;2022-07-25T14:38:36;6.80;;;5.43;;
4694;SDS011;2361;49.540;8.390;2022-07-25T14:41:04;6.93;;;6.30;;
4694;SDS011;2361;49.540;8.390;2022-07-25T14:43:38;9.40;;;7.23;;
4694;SDS011;2361;49.540;8.390;2022-07-25T14:46:05;6.80;;;6.10;;
4694;SDS011;2361;49.540;8.390;2022-07-25T14:48:34;7.73;;;7.00;;
4694;SDS011;2361;49.540;8.390;2022-07-25T14:51:03;10.40;;;6.33;;
4694;SDS011;2361;49.540;8.390;2022-07-25T14:53:31;6.87;;;6.17;;
4694;SDS011;2361;49.540;8.390;2022-07-25T14:56:00;7.27;;;6.57;;
4694;SDS011;2361;49.540;8.390;2022-07-25T14:58:30;8.10;;;6.93;;
4694;SDS011;2361;49.540;8.390;2022-07-25T15:00:58;7.00;;;6.27;;
4694;SDS011;2361;49.540;8.390;2022-07-25T15:03:25;11.90;;;7.00;;
4694;SDS011;2361;49.540;8.390;2022-07-25T15:05:52;8.73;;;6.90;;
4694;SDS011;2361;49.540;8.390;2022-07-25T15:08:19;7.13;;;6.53;;
4694;SDS011;2361;49.540;8.390;2022-07-25T15:10:46;7.50;;;6.80;;
4694;SDS011;2361;49.540;8.390;2022-07-25T15:13:13;6.13;;;5.53;;
4694;SDS011;2361;49.540;8.390;2022-07-25T15:15:57;6.30;;;5.77;;
4694;SDS011;2361;49.540;8.390;2022-07-25T15:18:25;10.17;;;6.10;;
4694;SDS011;2361;49.540;8.390;2022-07-25T15:20:52;7.53;;;6.90;;
4694;SDS011;2361;49.540;8.390;2022-07-25T15:23:20;8.20;;;7.40;;
4694;SDS011;2361;49.540;8.390;2022-07-25T15:25:50;7.63;;;6.77;;
4694;SDS011;2361;49.540;8.390;2022-07-25T15:28:27;7.73;;;6.93;;
4694;SDS011;2361;49.540;8.390;2022-07-25T15:30:54;8.10;;;7.30;;
4694;SDS011;2361;49.540;8.390;2022-07-25T15:33:21;7.00;;;6.30;;
4694;SDS011;2361;49.540;8.390;2022-07-25T15:35:48;6.17;;;5.57;;